sensor_id;sensor_type;location;lat;lon;timestamp;P1;durP1;ratioP1;P2;durP2;ratioP2
24153;SDS011;12312;53.362;-1.518;2023-03-01T00:01:31;34.50;;;13.98;;
24153;SDS011;12312;53.362;-1.518;2023-03-01T00:03:57;29.33;;;12.02;;
24153;SDS011;12312;53.362;-1.518;2023-03-01T00:06:23;31.65;;;12.07;;
24153;SDS011;12312;53.362;-1.518;2023-03-01T00:08:50;25.27;;;11.02;;
24153;SDS011;12312;53.362;-1.518;2023-03-01T00:11:25;26.00;;;10.98;;
24153;SDS011;12312;53.362;-1.518;2023-03-01T00:13:54;31.48;;;12.18;;
24153;SDS011;12312;53.362;-1.518;2023-03-01T00:16:23;23.20;;;8.98;;
24153;SDS011;12312;53.362;-1.518;2023-03-01T00:18:50;21.60;;;9.40;;
24153;SDS011;12312;53.362;-1.518;2023-03-01T00:21:16;17.35;;;7.40;;
24153;SDS011;12312;53.362;-1.518;2023-03-01T00:23:41;17.45;;;8.20;;
24153;SDS011;12312;53.362;-1.518;2023-03-01T00:26:11;22.05;;;8.50;;
24153;SDS011;12312;53.362;-1.518;2023-03-01T00:28:38;19.98;;;7.78;;
24153;SDS011;12312;53.362;-1.518;2023-03-01T00:31:08;16.13;;;6.07;;
24153;SDS011;12312;53.362;-1.518;2023-03-01T00:33:38;17.85;;;7.60;;
24153;SDS011;12312;53.362;-1.518;2023-03-01T00:36:04;15.85;;;7.03;;
24153;SDS011;12312;53.362;-1.518;2023-03-01T00:38:30;22.60;;;9.23;;
24153;SDS011;12312;53.362;-1.518;2023-03-01T00:40:55;20.92;;;6.28;;
24153;SDS011;12312;53.362;-1.518;2023-03-01T00:43:29;14.90;;;7.18;;
24153;SDS011;12312;53.362;-1.518;2023-03-01T00:45:54;16.73;;;7.35;;
24153;SDS011;12312;53.362;-1.518;2023-03-01T00:48:20;23.33;;;8.20;;
24153;SDS011;12312;53.362;-1.518;2023-03-01T00:50:45;16.60;;;7.88;;
24153;SDS011;12312;53.362;-1.518;2023-03-01T00:53:11;16.88;;;7.82;;
24153;SDS011;12312;53.362;-1.518;2023-03-01T00:55:36;21.05;;;8.18;;
24153;SDS011;12312;53.362;-1.518;2023-03-01T00:58:01;14.13;;;5.95;;
24153;SDS011;12312;53.362;-1.518;2023-03-01T01:00:27;16.17;;;7.72;;
24153;SDS011;12312;53.362;-1.518;2023-03-01T01:02:52;14.73;;;7.25;;
24153;SDS011;12312;53.362;-1.518;2023-03-01T01:05:18;17.48;;;7.80;;
24153;SDS011;12312;53.362;-1.518;2023-03-01T01:07:46;16.40;;;7.78;;
24153;SDS011;12312;53.362;-1.518;2023-03-01T01:10:12;16.45;;;6.28;;
24153;SDS011;12312;53.362;-1.518;2023-03-01T01:12:42;19.08;;;9.75;;
24153;SDS011;12312;53.362;-1.518;2023-03-01T01:15:10;31.70;;;9.55;;
24153;SDS011;12312;53.362;-1.518;2023-03-01T01:17:39;53.28;;;11.82;;
24153;SDS011;12312;53.362;-1.518;2023-03-01T01:20:23;22.55;;;10.07;;
24153;SDS011;12312;53.362;-1.518;2023-03-01T01:22:49;53.20;;;12.25;;
24153;SDS011;12312;53.362;-1.518;2023-03-01T01:25:14;33.08;;;12.93;;
24153;SDS011;12312;53.362;-1.518;2023-03-01T01:27:39;32.47;;;12.70;;
24153;SDS011;12312;53.362;-1.518;2023-03-01T01:30:05;25.55;;;10.52;;
24153;SDS011;12312;53.362;-1.518;2023-03-01T01:32:31;44.78;;;12.27;;
24153;SDS011;12312;53.362;-1.518;2023-03-01T01:34:56;27.70;;;9.88;;
24153;SDS011;12312;53.362;-1.518;2023-03-01T01:37:22;29.98;;;11.32;;
24153;SDS011;12312;53.362;-1.518;2023-03-01T01:39:47;23.63;;;8.55;;
24153;SDS011;12312;53.362;-1.518;2023-03-01T01:42:14;22.75;;;9.52;;
24153;SDS011;12312;53.362;-1.518;2023-03-01T01:44:42;19.13;;;6.97;;
24153;SDS011;12312;53.362;-1.518;2023-03-01T01:47:14;18.63;;;6.65;;
24153;SDS011;12312;53.362;-1.518;2023-03-01T01:49:53;16.33;;;7.68;;
24153;SDS011;12312;53.362;-1.518;2023-03-01T01:52:24;15.15;;;6.55;;
24153;SDS011;12312;53.362;-1.518;2023-03-01T01:55:08;16.85;;;6.47;;
24153;SDS011;12312;53.362;-1.518;2023-03-01T01:57:38;12.35;;;5.47;;
24153;SDS011;12312;53.362;-1.518;2023-03-01T02:00:14;20.90;;;6.03;;
24153;SDS011;12312;53.362;-1.518;2023-03-01T02:02:45;22.23;;;7.25;;
24153;SDS011;12312;53.362;-1.518;2023-03-01T02:07:51;15.07;;;7.22;;
24153;SDS011;12312;53.362;-1.518;2023-03-01T02:10:18;15.55;;;6.45;;
24153;SDS011;12312;53.362;-1.518;2023-03-01T02:12:44;18.67;;;7.63;;
24153;SDS011;12312;53.362;-1.518;2023-03-01T02:15:10;11.48;;;5.32;;
24153;SDS011;12312;53.362;-1.518;2023-03-01T02:17:36;14.25;;;6.40;;
24153;SDS011;12312;53.362;-1.518;2023-03-01T02:22:35;11.13;;;5.57;;
24153;SDS011;12312;53.362;-1.518;2023-03-01T02:27:40;20.58;;;8.25;;
24153;SDS011;12312;53.362;-1.518;2023-03-01T02:30:26;16.02;;;7.70;;
24153;SDS011;12312;53.362;-1.518;2023-03-01T02:32:53;14.13;;;6.45;;
24153;SDS011;12312;53.362;-1.518;2023-03-01T02:35:27;22.10;;;9.20;;
24153;SDS011;12312;53.362;-1.518;2023-03-01T02:38:00;20.40;;;8.23;;
24153;SDS011;12312;53.362;-1.518;2023-03-01T02:40:28;20.58;;;8.68;;
24153;SDS011;12312;53.362;-1.518;2023-03-01T02:42:58;23.02;;;8.07;;
24153;SDS011;12312;53.362;-1.518;2023-03-01T02:45:25;12.30;;;5.78;;
24153;SDS011;12312;53.362;-1.518;2023-03-01T02:47:55;21.42;;;9.10;;
24153;SDS011;12312;53.362;-1.518;2023-03-01T02:52:55;26.65;;;10.90;;
24153;SDS011;12312;53.362;-1.518;2023-03-01T02:55:21;18.95;;;7.32;;
24153;SDS011;12312;53.362;-1.518;2023-03-01T02:57:47;23.98;;;8.88;;
24153;SDS011;12312;53.362;-1.518;2023-03-01T03:00:17;17.80;;;7.13;;
24153;SDS011;12312;53.362;-1.518;2023-03-01T03:02:50;25.75;;;9.63;;
24153;SDS011;12312;53.362;-1.518;2023-03-01T03:05:25;23.30;;;9.75;;
24153;SDS011;12312;53.362;-1.518;2023-03-01T03:07:52;19.88;;;7.90;;
24153;SDS011;12312;53.362;-1.518;2023-03-01T03:10:20;21.70;;;8.25;;
24153;SDS011;12312;53.362;-1.518;2023-03-01T03:12:50;36.95;;;13.27;;
24153;SDS011;12312;53.362;-1.518;2023-03-01T03:15:18;27.67;;;10.77;;
24153;SDS011;12312;53.362;-1.518;2023-03-01T03:17:45;29.65;;;11.07;;
24153;SDS011;12312;53.362;-1.518;2023-03-01T03:20:12;20.52;;;8.43;;
24153;SDS011;12312;53.362;-1.518;2023-03-01T03:22:44;28.98;;;11.65;;
24153;SDS011;12312;53.362;-1.518;2023-03-01T03:25:14;25.30;;;10.40;;
24153;SDS011;12312;53.362;-1.518;2023-03-01T03:27:41;29.98;;;11.13;;
24153;SDS011;12312;53.362;-1.518;2023-03-01T03:30:08;24.85;;;9.73;;
24153;SDS011;12312;53.362;-1.518;2023-03-01T03:32:40;28.00;;;10.05;;
24153;SDS011;12312;53.362;-1.518;2023-03-01T03:35:07;29.95;;;10.75;;
24153;SDS011;12312;53.362;-1.518;2023-03-01T03:37:40;32.78;;;11.73;;
24153;SDS011;12312;53.362;-1.518;2023-03-01T03:43:30;22.20;;;8.07;;
24153;SDS011;12312;53.362;-1.518;2023-03-01T03:45:57;23.33;;;8.57;;
24153;SDS011;12312;53.362;-1.518;2023-03-01T03:48:23;22.42;;;8.35;;
24153;SDS011;12312;53.362;-1.518;2023-03-01T03:50:50;17.92;;;6.47;;
24153;SDS011;12312;53.362;-1.518;2023-03-01T03:53:21;17.23;;;7.50;;
24153;SDS011;12312;53.362;-1.518;2023-03-01T03:55:49;22.88;;;8.27;;
24153;SDS011;12312;53.362;-1.518;2023-03-01T03:58:15;19.85;;;7.65;;
24153;SDS011;12312;53.362;-1.518;2023-03-01T04:00:42;61.58;;;10.77;;
24153;SDS011;12312;53.362;-1.518;2023-03-01T04:03:09;19.70;;;7.22;;
24153;SDS011;12312;53.362;-1.518;2023-03-01T04:05:37;21.70;;;8.05;;
24153;SDS011;12312;53.362;-1.518;2023-03-01T04:08:03;15.23;;;6.32;;
24153;SDS011;12312;53.362;-1.518;2023-03-01T04:10:34;13.43;;;5.28;;
24153;SDS011;12312;53.362;-1.518;2023-03-01T04:13:13;13.10;;;4.97;;
24153;SDS011;12312;53.362;-1.518;2023-03-01T04:15:41;13.60;;;5.43;;
24153;SDS011;12312;53.362;-1.518;2023-03-01T04:18:08;294.73;;;23.15;;
24153;SDS011;12312;53.362;-1.518;2023-03-01T04:20:37;10.45;;;4.45;;
24153;SDS011;12312;53.362;-1.518;2023-03-01T04:23:10;14.68;;;5.93;;
24153;SDS011;12312;53.362;-1.518;2023-03-01T04:25:47;18.67;;;6.95;;
24153;SDS011;12312;53.362;-1.518;2023-03-01T04:28:24;24.85;;;8.80;;
24153;SDS011;12312;53.362;-1.518;2023-03-01T04:31:01;22.73;;;9.63;;
24153;SDS011;12312;53.362;-1.518;2023-03-01T04:33:38;26.25;;;10.60;;
24153;SDS011;12312;53.362;-1.518;2023-03-01T04:36:08;26.88;;;11.80;;
24153;SDS011;12312;53.362;-1.518;2023-03-01T04:38:36;24.65;;;8.98;;
24153;SDS011;12312;53.362;-1.518;2023-03-01T04:41:03;20.70;;;7.90;;
24153;SDS011;12312;53.362;-1.518;2023-03-01T04:43:29;28.25;;;11.20;;
24153;SDS011;12312;53.362;-1.518;2023-03-01T04:45:59;32.38;;;11.13;;
24153;SDS011;12312;53.362;-1.518;2023-03-01T04:48:27;20.33;;;9.25;;
24153;SDS011;12312;53.362;-1.518;2023-03-01T04:50:53;26.65;;;9.48;;
24153;SDS011;12312;53.362;-1.518;2023-03-01T04:53:19;30.33;;;10.30;;
24153;SDS011;12312;53.362;-1.518;2023-03-01T04:55:46;22.88;;;8.23;;
24153;SDS011;12312;53.362;-1.518;2023-03-01T04:58:11;19.45;;;8.63;;
24153;SDS011;12312;53.362;-1.518;2023-03-01T05:00:36;21.85;;;9.32;;
24153;SDS011;12312;53.362;-1.518;2023-03-01T05:03:02;20.42;;;7.88;;
24153;SDS011;12312;53.362;-1.518;2023-03-01T05:05:30;17.90;;;7.95;;
24153;SDS011;12312;53.362;-1.518;2023-03-01T05:08:01;19.10;;;8.60;;
24153;SDS011;12312;53.362;-1.518;2023-03-01T05:10:29;24.42;;;10.93;;
24153;SDS011;12312;53.362;-1.518;2023-03-01T05:12:56;23.35;;;10.50;;
24153;SDS011;12312;53.362;-1.518;2023-03-01T05:15:28;22.33;;;9.75;;
24153;SDS011;12312;53.362;-1.518;2023-03-01T05:17:55;30.17;;;11.90;;
24153;SDS011;12312;53.362;-1.518;2023-03-01T05:20:26;22.48;;;9.82;;
24153;SDS011;12312;53.362;-1.518;2023-03-01T05:22:54;18.90;;;7.18;;
24153;SDS011;12312;53.362;-1.518;2023-03-01T05:25:22;22.02;;;8.82;;
24153;SDS011;12312;53.362;-1.518;2023-03-01T05:27:47;24.55;;;7.85;;
24153;SDS011;12312;53.362;-1.518;2023-03-01T05:30:13;20.85;;;8.07;;
24153;SDS011;12312;53.362;-1.518;2023-03-01T05:32:42;21.25;;;7.25;;
24153;SDS011;12312;53.362;-1.518;2023-03-01T05:35:11;21.38;;;7.63;;
24153;SDS011;12312;53.362;-1.518;2023-03-01T05:37:43;19.67;;;6.53;;
24153;SDS011;12312;53.362;-1.518;2023-03-01T05:40:11;17.80;;;6.15;;
24153;SDS011;12312;53.362;-1.518;2023-03-01T05:42:46;18.65;;;5.07;;
24153;SDS011;12312;53.362;-1.518;2023-03-01T05:45:19;10.95;;;4.95;;
24153;SDS011;12312;53.362;-1.518;2023-03-01T05:47:46;11.25;;;5.35;;
24153;SDS011;12312;53.362;-1.518;2023-03-01T05:50:14;12.88;;;5.55;;
24153;SDS011;12312;53.362;-1.518;2023-03-01T05:52:43;21.02;;;7.43;;
24153;SDS011;12312;53.362;-1.518;2023-03-01T05:55:10;11.48;;;5.47;;
24153;SDS011;12312;53.362;-1.518;2023-03-01T05:57:35;11.77;;;5.70;;
24153;SDS011;12312;53.362;-1.518;2023-03-01T06:00:01;16.27;;;6.05;;
24153;SDS011;12312;53.362;-1.518;2023-03-01T06:02:27;14.10;;;5.55;;
24153;SDS011;12312;53.362;-1.518;2023-03-01T06:04:54;13.05;;;5.38;;
24153;SDS011;12312;53.362;-1.518;2023-03-01T06:07:20;12.45;;;4.97;;
24153;SDS011;12312;53.362;-1.518;2023-03-01T06:09:46;14.45;;;5.63;;
24153;SDS011;12312;53.362;-1.518;2023-03-01T06:12:11;17.25;;;6.68;;
24153;SDS011;12312;53.362;-1.518;2023-03-01T06:14:37;22.65;;;6.78;;
24153;SDS011;12312;53.362;-1.518;2023-03-01T06:17:03;11.52;;;5.38;;
24153;SDS011;12312;53.362;-1.518;2023-03-01T06:19:28;14.10;;;4.38;;
24153;SDS011;12312;53.362;-1.518;2023-03-01T06:21:54;18.52;;;5.90;;
24153;SDS011;12312;53.362;-1.518;2023-03-01T06:24:19;10.02;;;3.97;;
24153;SDS011;12312;53.362;-1.518;2023-03-01T06:26:44;15.10;;;5.63;;
24153;SDS011;12312;53.362;-1.518;2023-03-01T06:29:10;17.83;;;6.47;;
24153;SDS011;12312;53.362;-1.518;2023-03-01T06:31:35;16.05;;;6.68;;
24153;SDS011;12312;53.362;-1.518;2023-03-01T06:34:01;26.85;;;9.38;;
24153;SDS011;12312;53.362;-1.518;2023-03-01T06:36:27;22.58;;;6.63;;
24153;SDS011;12312;53.362;-1.518;2023-03-01T06:38:52;48.35;;;7.97;;
24153;SDS011;12312;53.362;-1.518;2023-03-01T06:41:18;49.97;;;10.52;;
24153;SDS011;12312;53.362;-1.518;2023-03-01T06:43:43;49.35;;;11.13;;
24153;SDS011;12312;53.362;-1.518;2023-03-01T06:46:09;21.55;;;8.45;;
24153;SDS011;12312;53.362;-1.518;2023-03-01T06:48:34;92.32;;;15.85;;
24153;SDS011;12312;53.362;-1.518;2023-03-01T06:51:00;27.10;;;8.73;;
24153;SDS011;12312;53.362;-1.518;2023-03-01T06:53:26;25.67;;;8.98;;
24153;SDS011;12312;53.362;-1.518;2023-03-01T06:55:56;22.60;;;8.98;;
24153;SDS011;12312;53.362;-1.518;2023-03-01T06:58:22;44.13;;;8.60;;
24153;SDS011;12312;53.362;-1.518;2023-03-01T07:00:48;40.35;;;7.93;;
24153;SDS011;12312;53.362;-1.518;2023-03-01T07:03:13;17.50;;;6.40;;
24153;SDS011;12312;53.362;-1.518;2023-03-01T07:05:39;58.58;;;10.88;;
24153;SDS011;12312;53.362;-1.518;2023-03-01T07:08:05;110.63;;;14.30;;
24153;SDS011;12312;53.362;-1.518;2023-03-01T07:10:30;16.88;;;8.07;;
24153;SDS011;12312;53.362;-1.518;2023-03-01T07:12:57;15.05;;;6.13;;
24153;SDS011;12312;53.362;-1.518;2023-03-01T07:15:23;82.72;;;14.98;;
24153;SDS011;12312;53.362;-1.518;2023-03-01T07:17:49;226.32;;;22.45;;
24153;SDS011;12312;53.362;-1.518;2023-03-01T07:20:16;28.58;;;9.80;;
24153;SDS011;12312;53.362;-1.518;2023-03-01T07:22:43;30.00;;;9.68;;
24153;SDS011;12312;53.362;-1.518;2023-03-01T07:25:09;26.48;;;8.57;;
24153;SDS011;12312;53.362;-1.518;2023-03-01T07:27:35;26.60;;;9.50;;
24153;SDS011;12312;53.362;-1.518;2023-03-01T07:30:02;21.23;;;9.05;;
24153;SDS011;12312;53.362;-1.518;2023-03-01T07:32:28;22.80;;;8.88;;
24153;SDS011;12312;53.362;-1.518;2023-03-01T07:34:53;14.25;;;5.50;;
24153;SDS011;12312;53.362;-1.518;2023-03-01T07:37:19;22.52;;;8.65;;
24153;SDS011;12312;53.362;-1.518;2023-03-01T07:39:44;38.80;;;8.32;;
24153;SDS011;12312;53.362;-1.518;2023-03-01T07:42:10;20.88;;;8.00;;
24153;SDS011;12312;53.362;-1.518;2023-03-01T07:44:35;20.58;;;8.32;;
24153;SDS011;12312;53.362;-1.518;2023-03-01T07:47:01;18.77;;;7.75;;
24153;SDS011;12312;53.362;-1.518;2023-03-01T07:49:26;17.20;;;9.82;;
24153;SDS011;12312;53.362;-1.518;2023-03-01T07:51:52;48.38;;;10.45;;
24153;SDS011;12312;53.362;-1.518;2023-03-01T07:54:18;19.45;;;7.13;;
24153;SDS011;12312;53.362;-1.518;2023-03-01T07:56:43;21.10;;;6.20;;
24153;SDS011;12312;53.362;-1.518;2023-03-01T07:59:09;206.95;;;18.98;;
24153;SDS011;12312;53.362;-1.518;2023-03-01T08:01:34;14.77;;;7.70;;
24153;SDS011;12312;53.362;-1.518;2023-03-01T08:04:00;8.50;;;5.00;;
24153;SDS011;12312;53.362;-1.518;2023-03-01T08:06:26;11.18;;;5.70;;
24153;SDS011;12312;53.362;-1.518;2023-03-01T08:08:52;19.33;;;6.80;;
24153;SDS011;12312;53.362;-1.518;2023-03-01T08:11:20;12.65;;;5.43;;
24153;SDS011;12312;53.362;-1.518;2023-03-01T08:13:47;14.25;;;5.63;;
24153;SDS011;12312;53.362;-1.518;2023-03-01T08:16:14;11.98;;;5.03;;
24153;SDS011;12312;53.362;-1.518;2023-03-01T08:18:40;7.72;;;4.57;;
24153;SDS011;12312;53.362;-1.518;2023-03-01T08:21:07;13.27;;;4.95;;
24153;SDS011;12312;53.362;-1.518;2023-03-01T08:23:37;10.45;;;6.00;;
24153;SDS011;12312;53.362;-1.518;2023-03-01T08:28:46;18.73;;;5.50;;
24153;SDS011;12312;53.362;-1.518;2023-03-01T08:31:13;14.30;;;6.38;;
24153;SDS011;12312;53.362;-1.518;2023-03-01T08:34:03;14.25;;;6.03;;
24153;SDS011;12312;53.362;-1.518;2023-03-01T08:36:40;10.55;;;4.47;;
24153;SDS011;12312;53.362;-1.518;2023-03-01T08:39:07;13.52;;;5.15;;
24153;SDS011;12312;53.362;-1.518;2023-03-01T08:41:34;12.82;;;6.28;;
24153;SDS011;12312;53.362;-1.518;2023-03-01T08:44:00;8.60;;;4.25;;
24153;SDS011;12312;53.362;-1.518;2023-03-01T08:46:29;11.05;;;3.55;;
24153;SDS011;12312;53.362;-1.518;2023-03-01T08:48:57;8.50;;;2.70;;
24153;SDS011;12312;53.362;-1.518;2023-03-01T08:51:23;13.93;;;3.53;;
24153;SDS011;12312;53.362;-1.518;2023-03-01T08:53:49;13.25;;;3.83;;
24153;SDS011;12312;53.362;-1.518;2023-03-01T08:56:15;7.95;;;3.33;;
24153;SDS011;12312;53.362;-1.518;2023-03-01T08:58:43;8.70;;;3.90;;
24153;SDS011;12312;53.362;-1.518;2023-03-01T09:01:11;9.80;;;3.00;;
24153;SDS011;12312;53.362;-1.518;2023-03-01T09:03:38;8.15;;;4.13;;
24153;SDS011;12312;53.362;-1.518;2023-03-01T09:06:04;10.82;;;3.97;;
24153;SDS011;12312;53.362;-1.518;2023-03-01T09:08:42;10.95;;;4.80;;
24153;SDS011;12312;53.362;-1.518;2023-03-01T09:11:10;10.75;;;4.63;;
24153;SDS011;12312;53.362;-1.518;2023-03-01T09:13:38;10.73;;;4.38;;
24153;SDS011;12312;53.362;-1.518;2023-03-01T09:16:05;6.65;;;2.65;;
24153;SDS011;12312;53.362;-1.518;2023-03-01T09:18:31;9.30;;;4.78;;
24153;SDS011;12312;53.362;-1.518;2023-03-01T09:21:04;14.60;;;4.78;;
24153;SDS011;12312;53.362;-1.518;2023-03-01T09:23:32;9.38;;;3.10;;
24153;SDS011;12312;53.362;-1.518;2023-03-01T09:25:59;9.20;;;3.83;;
24153;SDS011;12312;53.362;-1.518;2023-03-01T09:28:25;7.00;;;3.10;;
24153;SDS011;12312;53.362;-1.518;2023-03-01T09:30:51;9.18;;;3.80;;
24153;SDS011;12312;53.362;-1.518;2023-03-01T09:33:16;7.63;;;3.97;;
24153;SDS011;12312;53.362;-1.518;2023-03-01T09:35:42;6.78;;;3.63;;
24153;SDS011;12312;53.362;-1.518;2023-03-01T09:38:12;13.90;;;4.80;;
24153;SDS011;12312;53.362;-1.518;2023-03-01T09:40:42;9.30;;;3.63;;
24153;SDS011;12312;53.362;-1.518;2023-03-01T09:46:07;3.53;;;2.17;;
24153;SDS011;12312;53.362;-1.518;2023-03-01T09:48:41;5.05;;;2.60;;
24153;SDS011;12312;53.362;-1.518;2023-03-01T09:51:30;7.20;;;3.80;;
24153;SDS011;12312;53.362;-1.518;2023-03-01T09:53:58;8.20;;;3.33;;
24153;SDS011;12312;53.362;-1.518;2023-03-01T10:06:57;6.13;;;4.45;;
24153;SDS011;12312;53.362;-1.518;2023-03-01T10:09:30;10.15;;;4.85;;
24153;SDS011;12312;53.362;-1.518;2023-03-01T10:11:59;10.93;;;5.25;;
24153;SDS011;12312;53.362;-1.518;2023-03-01T10:14:33;10.18;;;4.38;;
24153;SDS011;12312;53.362;-1.518;2023-03-01T10:17:12;9.40;;;4.32;;
24153;SDS011;12312;53.362;-1.518;2023-03-01T10:22:27;8.87;;;3.37;;
24153;SDS011;12312;53.362;-1.518;2023-03-01T10:24:54;12.27;;;4.80;;
24153;SDS011;12312;53.362;-1.518;2023-03-01T10:32:38;10.05;;;3.30;;
24153;SDS011;12312;53.362;-1.518;2023-03-01T10:35:17;10.20;;;4.63;;
24153;SDS011;12312;53.362;-1.518;2023-03-01T10:38:08;10.50;;;4.32;;
24153;SDS011;12312;53.362;-1.518;2023-03-01T10:40:37;8.32;;;3.65;;
24153;SDS011;12312;53.362;-1.518;2023-03-01T10:43:16;5.95;;;2.88;;
24153;SDS011;12312;53.362;-1.518;2023-03-01T10:45:41;7.82;;;3.15;;
24153;SDS011;12312;53.362;-1.518;2023-03-01T10:48:12;13.35;;;4.05;;
24153;SDS011;12312;53.362;-1.518;2023-03-01T10:50:43;7.18;;;3.10;;
24153;SDS011;12312;53.362;-1.518;2023-03-01T10:55:45;7.80;;;3.55;;
24153;SDS011;12312;53.362;-1.518;2023-03-01T11:00:50;6.43;;;3.10;;
24153;SDS011;12312;53.362;-1.518;2023-03-01T11:03:21;6.45;;;2.60;;
24153;SDS011;12312;53.362;-1.518;2023-03-01T11:06:00;5.60;;;3.15;;
24153;SDS011;12312;53.362;-1.518;2023-03-01T11:08:29;5.03;;;3.13;;
24153;SDS011;12312;53.362;-1.518;2023-03-01T11:11:48;10.52;;;3.30;;
24153;SDS011;12312;53.362;-1.518;2023-03-01T11:13:57;4.05;;;2.10;;
24153;SDS011;12312;53.362;-1.518;2023-03-01T11:16:36;7.60;;;2.80;;
24153;SDS011;12312;53.362;-1.518;2023-03-01T11:21:47;7.25;;;3.38;;
24153;SDS011;12312;53.362;-1.518;2023-03-01T11:24:21;10.75;;;3.45;;
24153;SDS011;12312;53.362;-1.518;2023-03-01T11:26:54;9.23;;;3.70;;
24153;SDS011;12312;53.362;-1.518;2023-03-01T11:29:25;7.30;;;3.17;;
24153;SDS011;12312;53.362;-1.518;2023-03-01T11:31:58;9.35;;;3.22;;
24153;SDS011;12312;53.362;-1.518;2023-03-01T11:37:32;6.60;;;2.90;;
24153;SDS011;12312;53.362;-1.518;2023-03-01T11:39:59;4.55;;;2.55;;
24153;SDS011;12312;53.362;-1.518;2023-03-01T11:42:37;4.97;;;2.70;;
24153;SDS011;12312;53.362;-1.518;2023-03-01T11:45:13;4.32;;;1.70;;
24153;SDS011;12312;53.362;-1.518;2023-03-01T11:50:30;5.10;;;1.90;;
24153;SDS011;12312;53.362;-1.518;2023-03-01T11:56:03;5.97;;;3.15;;
24153;SDS011;12312;53.362;-1.518;2023-03-01T11:58:39;7.95;;;2.22;;
24153;SDS011;12312;53.362;-1.518;2023-03-01T12:01:32;9.13;;;2.70;;
24153;SDS011;12312;53.362;-1.518;2023-03-01T12:12:27;10.48;;;2.40;;
24153;SDS011;12312;53.362;-1.518;2023-03-01T12:44:24;6.68;;;1.40;;
24153;SDS011;12312;53.362;-1.518;2023-03-01T12:47:14;5.55;;;1.23;;
24153;SDS011;12312;53.362;-1.518;2023-03-01T12:50:04;1.65;;;0.77;;
24153;SDS011;12312;53.362;-1.518;2023-03-01T12:52:41;6.43;;;1.08;;
24153;SDS011;12312;53.362;-1.518;2023-03-01T12:55:53;2.72;;;1.67;;
24153;SDS011;12312;53.362;-1.518;2023-03-01T13:01:04;7.35;;;1.30;;
24153;SDS011;12312;53.362;-1.518;2023-03-01T13:11:44;7.22;;;2.55;;
24153;SDS011;12312;53.362;-1.518;2023-03-01T13:16:51;5.47;;;2.60;;
24153;SDS011;12312;53.362;-1.518;2023-03-01T13:19:18;5.10;;;2.30;;
24153;SDS011;12312;53.362;-1.518;2023-03-01T13:21:46;7.88;;;2.33;;
24153;SDS011;12312;53.362;-1.518;2023-03-01T13:32:22;6.38;;;2.28;;
24153;SDS011;12312;53.362;-1.518;2023-03-01T13:34:55;5.05;;;2.08;;
24153;SDS011;12312;53.362;-1.518;2023-03-01T13:37:23;5.72;;;2.05;;
24153;SDS011;12312;53.362;-1.518;2023-03-01T13:39:51;7.35;;;2.30;;
24153;SDS011;12312;53.362;-1.518;2023-03-01T13:42:31;8.40;;;1.58;;
24153;SDS011;12312;53.362;-1.518;2023-03-01T13:45:03;8.18;;;1.30;;
24153;SDS011;12312;53.362;-1.518;2023-03-01T13:47:31;4.63;;;1.27;;
24153;SDS011;12312;53.362;-1.518;2023-03-01T13:50:00;4.43;;;1.83;;
24153;SDS011;12312;53.362;-1.518;2023-03-01T13:57:57;11.00;;;1.10;;
24153;SDS011;12312;53.362;-1.518;2023-03-01T14:00:38;4.78;;;1.60;;
24153;SDS011;12312;53.362;-1.518;2023-03-01T14:03:09;7.72;;;2.25;;
24153;SDS011;12312;53.362;-1.518;2023-03-01T14:05:38;5.95;;;2.00;;
24153;SDS011;12312;53.362;-1.518;2023-03-01T14:08:14;5.45;;;1.65;;
24153;SDS011;12312;53.362;-1.518;2023-03-01T14:16:46;4.40;;;1.27;;
24153;SDS011;12312;53.362;-1.518;2023-03-01T14:19:18;8.75;;;1.67;;
24153;SDS011;12312;53.362;-1.518;2023-03-01T14:21:58;7.75;;;1.98;;
24153;SDS011;12312;53.362;-1.518;2023-03-01T14:24:25;4.45;;;1.65;;
24153;SDS011;12312;53.362;-1.518;2023-03-01T14:26:52;9.10;;;2.42;;
24153;SDS011;12312;53.362;-1.518;2023-03-01T14:29:26;4.82;;;2.22;;
24153;SDS011;12312;53.362;-1.518;2023-03-01T14:32:10;5.85;;;2.20;;
24153;SDS011;12312;53.362;-1.518;2023-03-01T14:34:47;7.90;;;1.90;;
24153;SDS011;12312;53.362;-1.518;2023-03-01T14:37:35;3.88;;;1.38;;
24153;SDS011;12312;53.362;-1.518;2023-03-01T14:40:00;11.63;;;3.13;;
24153;SDS011;12312;53.362;-1.518;2023-03-01T14:42:29;11.60;;;3.40;;
24153;SDS011;12312;53.362;-1.518;2023-03-01T14:44:59;10.45;;;3.47;;
24153;SDS011;12312;53.362;-1.518;2023-03-01T14:47:33;6.38;;;2.28;;
24153;SDS011;12312;53.362;-1.518;2023-03-01T14:50:02;8.40;;;2.40;;
24153;SDS011;12312;53.362;-1.518;2023-03-01T14:52:33;9.57;;;1.75;;
24153;SDS011;12312;53.362;-1.518;2023-03-01T14:55:03;3.70;;;1.15;;
24153;SDS011;12312;53.362;-1.518;2023-03-01T14:57:30;2.92;;;1.35;;
24153;SDS011;12312;53.362;-1.518;2023-03-01T15:00:00;2.88;;;1.13;;
24153;SDS011;12312;53.362;-1.518;2023-03-01T15:02:30;5.10;;;2.13;;
24153;SDS011;12312;53.362;-1.518;2023-03-01T15:04:58;5.05;;;1.50;;
24153;SDS011;12312;53.362;-1.518;2023-03-01T15:07:31;6.55;;;1.23;;
24153;SDS011;12312;53.362;-1.518;2023-03-01T15:10:02;9.20;;;1.63;;
24153;SDS011;12312;53.362;-1.518;2023-03-01T15:14:54;5.60;;;1.80;;
24153;SDS011;12312;53.362;-1.518;2023-03-01T15:17:34;1.90;;;1.45;;
24153;SDS011;12312;53.362;-1.518;2023-03-01T15:20:07;5.63;;;1.65;;
24153;SDS011;12312;53.362;-1.518;2023-03-01T15:22:43;6.20;;;1.33;;
24153;SDS011;12312;53.362;-1.518;2023-03-01T15:25:16;4.00;;;1.10;;
24153;SDS011;12312;53.362;-1.518;2023-03-01T15:27:48;6.85;;;1.98;;
24153;SDS011;12312;53.362;-1.518;2023-03-01T15:30:18;9.95;;;3.47;;
24153;SDS011;12312;53.362;-1.518;2023-03-01T15:32:48;6.55;;;2.33;;
24153;SDS011;12312;53.362;-1.518;2023-03-01T15:41:04;9.88;;;1.73;;
24153;SDS011;12312;53.362;-1.518;2023-03-01T15:43:46;5.43;;;1.80;;
24153;SDS011;12312;53.362;-1.518;2023-03-01T15:46:33;4.93;;;1.45;;
24153;SDS011;12312;53.362;-1.518;2023-03-01T15:49:03;6.55;;;1.45;;
24153;SDS011;12312;53.362;-1.518;2023-03-01T15:51:44;3.75;;;1.20;;
24153;SDS011;12312;53.362;-1.518;2023-03-01T15:54:28;4.78;;;1.58;;
24153;SDS011;12312;53.362;-1.518;2023-03-01T15:56:54;8.05;;;1.95;;
24153;SDS011;12312;53.362;-1.518;2023-03-01T15:59:20;5.47;;;1.95;;
24153;SDS011;12312;53.362;-1.518;2023-03-01T16:01:47;6.07;;;1.77;;
24153;SDS011;12312;53.362;-1.518;2023-03-01T16:04:14;3.63;;;1.65;;
24153;SDS011;12312;53.362;-1.518;2023-03-01T16:06:52;2.50;;;1.50;;
24153;SDS011;12312;53.362;-1.518;2023-03-01T16:09:21;4.50;;;1.55;;
24153;SDS011;12312;53.362;-1.518;2023-03-01T16:11:51;6.82;;;1.90;;
24153;SDS011;12312;53.362;-1.518;2023-03-01T16:14:18;3.65;;;1.40;;
24153;SDS011;12312;53.362;-1.518;2023-03-01T16:16:44;2.28;;;1.20;;
24153;SDS011;12312;53.362;-1.518;2023-03-01T16:19:10;42.17;;;3.88;;
24153;SDS011;12312;53.362;-1.518;2023-03-01T16:21:36;5.65;;;1.45;;
24153;SDS011;12312;53.362;-1.518;2023-03-01T16:24:02;1.23;;;1.10;;
24153;SDS011;12312;53.362;-1.518;2023-03-01T16:26:28;4.90;;;1.30;;
24153;SDS011;12312;53.362;-1.518;2023-03-01T16:28:54;20.10;;;2.10;;
24153;SDS011;12312;53.362;-1.518;2023-03-01T16:31:22;84.97;;;6.80;;
24153;SDS011;12312;53.362;-1.518;2023-03-01T16:33:48;4.53;;;1.00;;
24153;SDS011;12312;53.362;-1.518;2023-03-01T16:36:18;6.32;;;1.52;;
24153;SDS011;12312;53.362;-1.518;2023-03-01T16:38:45;5.65;;;1.42;;
24153;SDS011;12312;53.362;-1.518;2023-03-01T16:41:32;5.53;;;1.40;;
24153;SDS011;12312;53.362;-1.518;2023-03-01T16:43:58;189.20;;;13.15;;
24153;SDS011;12312;53.362;-1.518;2023-03-01T16:46:24;5.30;;;1.55;;
24153;SDS011;12312;53.362;-1.518;2023-03-01T16:48:53;12.43;;;2.28;;
24153;SDS011;12312;53.362;-1.518;2023-03-01T16:51:19;7.80;;;1.67;;